createdAt,value
2023-04-18T00:01:22.412Z,99652.56
2023-04-18T00:03:50.678Z,99659.13
2023-04-18T00:06:20.000Z,99656.63
2023-04-18T00:08:47.736Z,99652.34
2023-04-18T00:11:17.425Z,99664.25
2023-04-18T00:13:48.320Z,99660.03
2023-04-18T00:16:17.735Z,99655.41
2023-04-18T00:18:45.466Z,99661.28
2023-04-18T00:21:14.111Z,99660.44
2023-04-18T00:24:01.769Z,99657.03
2023-04-18T00:26:31.313Z,99655.31
2023-04-18T00:29:19.969Z,99657.91
2023-04-18T00:32:07.446Z,99661.19
2023-04-18T00:34:47.550Z,99660.25
2023-04-18T00:40:24.052Z,99662.59
2023-04-18T00:43:03.636Z,99662.59
2023-04-18T00:46:01.746Z,99661.41
2023-04-18T00:48:31.389Z,99663.88
2023-04-18T00:51:09.277Z,99663.16
2023-04-18T00:53:36.527Z,99667.28
2023-04-18T00:56:04.805Z,99665.47
2023-04-18T00:58:33.371Z,99664.81
2023-04-18T01:01:00.799Z,99660.38
2023-04-18T01:03:28.258Z,99660.69
2023-04-18T01:05:57.886Z,99651.84
2023-04-18T01:08:25.696Z,99658.78
2023-04-18T01:10:53.372Z,99656.50
2023-04-18T01:13:21.055Z,99665.09
2023-04-18T01:15:49.213Z,99659.00
2023-04-18T01:18:17.592Z,99656.72
2023-04-18T01:20:47.711Z,99661.09
2023-04-18T01:23:15.465Z,99650.44
2023-04-18T01:25:53.551Z,99663.03
2023-04-18T01:28:22.979Z,99659.50
2023-04-18T01:30:50.328Z,99662.28
2023-04-18T01:33:18.323Z,99669.00
2023-04-18T01:35:47.151Z,99665.97
2023-04-18T01:38:14.380Z,99662.28
2023-04-18T01:40:44.392Z,99665.81
2023-04-18T01:43:11.851Z,99669.72
2023-04-18T01:45:39.994Z,99673.22
2023-04-18T01:48:09.160Z,99673.94
2023-04-18T01:50:37.463Z,99674.16
2023-04-18T01:53:06.086Z,99675.25
2023-04-18T01:55:34.689Z,99671.91
2023-04-18T01:58:02.225Z,99677.16
2023-04-18T02:00:30.976Z,99676.28
2023-04-18T02:02:59.660Z,99680.87
2023-04-18T02:05:51.253Z,99668.66
2023-04-18T02:08:21.363Z,99680.09
2023-04-18T02:10:49.578Z,99682.41
2023-04-18T02:13:17.331Z,99664.28
2023-04-18T02:15:46.056Z,99673.72
2023-04-18T02:18:15.981Z,99682.66
2023-04-18T02:20:43.177Z,99672.41
2023-04-18T02:23:10.942Z,99672.09
2023-04-18T02:25:38.612Z,99681.13
2023-04-18T02:28:06.330Z,99682.72
2023-04-18T02:31:15.765Z,99681.25
2023-04-18T02:33:47.103Z,99675.59
2023-04-18T02:36:15.523Z,99678.16
2023-04-18T02:38:43.079Z,99678.06
2023-04-18T02:41:15.208Z,99674.84
2023-04-18T02:43:45.184Z,99678.03
2023-04-18T02:46:14.159Z,99673.03
2023-04-18T02:48:42.352Z,99680.41
2023-04-18T02:51:12.378Z,99681.91
2023-04-18T02:53:41.499Z,99678.56
2023-04-18T02:56:09.397Z,99685.00
2023-04-18T02:58:38.157Z,99692.88
2023-04-18T03:01:06.563Z,99687.34
2023-04-18T03:03:37.873Z,99689.69
2023-04-18T03:06:07.553Z,99699.06
2023-04-18T03:08:35.676Z,99700.88
2023-04-18T03:11:03.411Z,99698.41
2023-04-18T03:13:32.018Z,99702.41
2023-04-18T03:16:02.516Z,99701.41
2023-04-18T03:18:30.755Z,99701.06
2023-04-18T03:20:58.624Z,99699.03
2023-04-18T03:23:37.534Z,99705.16
2023-04-18T03:26:07.389Z,99691.59
2023-04-18T03:28:36.628Z,99701.38
2023-04-18T03:31:05.472Z,99701.38
2023-04-18T03:33:35.340Z,99706.69
2023-04-18T03:36:05.632Z,99704.47
2023-04-18T03:38:33.272Z,99710.34
2023-04-18T03:41:02.476Z,99717.25
2023-04-18T03:43:31.157Z,99712.75
2023-04-18T03:45:59.314Z,99710.09
2023-04-18T03:48:29.215Z,99704.13
2023-04-18T03:50:59.122Z,99712.84
2023-04-18T03:53:51.347Z,99701.56
2023-04-18T03:56:21.587Z,99709.13
2023-04-18T03:58:53.023Z,99704.84
2023-04-18T04:01:21.931Z,99710.09
2023-04-18T04:03:52.867Z,99700.00
2023-04-18T04:06:25.359Z,99709.47
2023-04-18T04:08:54.470Z,99706.72
2023-04-18T04:11:24.569Z,99717.13
2023-04-18T04:13:53.414Z,99720.22
2023-04-18T04:16:29.499Z,99717.91
2023-04-18T04:18:58.678Z,99718.22
2023-04-18T04:21:31.425Z,99725.25
2023-04-18T04:24:01.466Z,99715.34
2023-04-18T04:26:31.763Z,99722.41
2023-04-18T04:29:02.333Z,99730.69
2023-04-18T04:31:39.561Z,99725.72
2023-04-18T04:34:09.128Z,99736.44
2023-04-18T04:36:37.256Z,99730.50
2023-04-18T04:39:06.870Z,99736.03
2023-04-18T04:41:42.023Z,99739.53
2023-04-18T04:44:18.559Z,99741.03
2023-04-18T04:46:55.932Z,99739.88
2023-04-18T04:49:27.523Z,99739.47
2023-04-18T04:51:56.400Z,99742.69
2023-04-18T04:54:28.423Z,99744.13
2023-04-18T04:56:58.216Z,99734.56
2023-04-18T04:59:27.792Z,99745.31
2023-04-18T05:01:57.458Z,99748.87
2023-04-18T05:04:27.898Z,99753.44
2023-04-18T05:07:01.432Z,99750.84
2023-04-18T05:09:30.449Z,99760.53
2023-04-18T05:11:58.722Z,99758.34
2023-04-18T05:14:28.680Z,99753.06
2023-04-18T05:16:57.462Z,99761.19
2023-04-18T05:19:25.064Z,99759.34
2023-04-18T05:21:53.420Z,99763.56
2023-04-18T05:24:23.154Z,99755.44
2023-04-18T05:26:56.041Z,99763.56
2023-04-18T05:29:24.314Z,99768.88
2023-04-18T05:31:51.814Z,99778.31
2023-04-18T05:34:21.457Z,99768.22
2023-04-18T05:36:56.432Z,99777.34
2023-04-18T05:39:24.663Z,99774.69
2023-04-18T05:41:56.998Z,99778.25
2023-04-18T05:44:30.557Z,99779.87
2023-04-18T05:46:58.912Z,99776.50
2023-04-18T05:50:09.058Z,99779.34
2023-04-18T05:52:44.936Z,99777.81
2023-04-18T05:57:54.013Z,99775.53
2023-04-18T06:00:22.455Z,99775.78
2023-04-18T06:02:51.443Z,99777.41
2023-04-18T06:05:19.935Z,99781.53
2023-04-18T06:07:48.277Z,99778.91
2023-04-18T06:10:20.433Z,99792.50
2023-04-18T06:12:49.990Z,99788.97
2023-04-18T06:15:19.163Z,99787.28
2023-04-18T06:17:48.765Z,99791.31
2023-04-18T06:20:23.468Z,99784.72
2023-04-18T06:22:51.147Z,99796.16
2023-04-18T06:25:24.421Z,99792.78
2023-04-18T06:27:56.759Z,99802.87
2023-04-18T06:30:32.575Z,99790.28
2023-04-18T06:33:04.205Z,99797.56
2023-04-18T06:35:33.025Z,99801.72
2023-04-18T06:38:08.360Z,99798.94
2023-04-18T06:40:43.525Z,99783.81
2023-04-18T06:43:15.805Z,99797.31
2023-04-18T06:45:45.565Z,99798.81
2023-04-18T06:48:13.550Z,99797.34
2023-04-18T06:50:44.097Z,99803.63
2023-04-18T06:53:13.078Z,99804.13
2023-04-18T06:55:41.053Z,99797.06
2023-04-18T06:58:10.137Z,99809.59
2023-04-18T07:00:39.008Z,99801.78
2023-04-18T07:03:11.276Z,99808.59
2023-04-18T07:05:48.396Z,99802.28
2023-04-18T07:08:16.662Z,99807.53
2023-04-18T07:10:44.957Z,99813.44
2023-04-18T07:13:12.798Z,99817.41
2023-04-18T07:15:44.804Z,99811.41
2023-04-18T07:18:20.660Z,99813.31
2023-04-18T07:20:58.092Z,99810.84
2023-04-18T07:23:26.793Z,99806.34
2023-04-18T07:26:02.714Z,99806.78
2023-04-18T07:28:38.891Z,99811.00
2023-04-18T07:31:11.698Z,99815.75
2023-04-18T07:33:43.787Z,99821.69
2023-04-18T07:36:16.443Z,99814.88
2023-04-18T07:38:47.482Z,99815.72
2023-04-18T07:41:15.075Z,99821.28
2023-04-18T07:43:45.060Z,99822.44
2023-04-18T07:46:17.959Z,99826.00
2023-04-18T07:50:04.071Z,99819.63
2023-04-18T07:53:08.267Z,99831.34
2023-04-18T07:55:47.109Z,99829.16
2023-04-18T07:58:28.458Z,99833.41
2023-04-18T08:01:14.375Z,99839.88
2023-04-18T08:04:06.585Z,99828.66
2023-04-18T08:06:48.957Z,99829.41
2023-04-18T08:09:29.844Z,99844.88
2023-04-18T08:12:25.446Z,99833.13
2023-04-18T08:15:09.000Z,99837.00
2023-04-18T08:17:53.057Z,99840.25
2023-04-18T08:20:27.083Z,99845.94
2023-04-18T08:23:11.141Z,99844.44
2023-04-18T08:26:00.918Z,99847.75
2023-04-18T08:28:30.928Z,99845.19
2023-04-18T08:31:19.764Z,99853.09
2023-04-18T08:34:17.156Z,99850.22
2023-04-18T08:37:11.457Z,99848.31
2023-04-18T08:40:07.477Z,99855.25
2023-04-18T08:42:50.708Z,99848.37
2023-04-18T08:45:34.497Z,99846.03
2023-04-18T08:48:18.477Z,99855.16
2023-04-18T08:51:02.537Z,99852.38
2023-04-18T08:54:04.722Z,99844.69
2023-04-18T08:56:33.229Z,99843.16
2023-04-18T08:59:46.679Z,99853.44
2023-04-18T09:02:47.462Z,99852.22
2023-04-18T09:05:30.711Z,99859.09
2023-04-18T09:08:29.475Z,99857.31
2023-04-18T09:11:29.235Z,99845.19
2023-04-18T09:14:27.454Z,99849.56
2023-04-18T09:17:07.222Z,99843.00
2023-04-18T09:20:10.411Z,99839.09
2023-04-18T09:22:52.932Z,99841.66
2023-04-18T09:25:44.774Z,99836.16
2023-04-18T09:28:29.333Z,99839.31
2023-04-18T09:31:15.883Z,99842.38
2023-04-18T09:33:57.120Z,99847.31
2023-04-18T09:36:41.149Z,99854.91
2023-04-18T09:39:38.905Z,99851.78
2023-04-18T09:42:22.038Z,99854.66
2023-04-18T09:45:17.477Z,99845.19
2023-04-18T09:47:57.516Z,99849.09
2023-04-18T09:50:40.631Z,99859.34
2023-04-18T09:53:34.680Z,99857.31
2023-04-18T09:56:26.456Z,99852.94
2023-04-18T09:59:29.842Z,99854.81
2023-04-18T10:02:16.512Z,99846.66
2023-04-18T10:04:59.834Z,99846.53
2023-04-18T10:07:53.220Z,99831.19
2023-04-18T10:10:38.914Z,99841.22
2023-04-18T10:13:20.672Z,99847.38
2023-04-18T10:16:04.524Z,99845.31
2023-04-18T10:18:47.717Z,99836.16
2023-04-18T10:21:31.556Z,99834.25
2023-04-18T10:24:46.248Z,99843.69
2023-04-18T10:30:51.333Z,99826.97
2023-04-18T10:33:41.015Z,99831.84
2023-04-18T10:36:24.036Z,99840.44
2023-04-18T10:39:26.027Z,99838.63
2023-04-18T10:42:09.437Z,99839.75
2023-04-18T10:45:17.263Z,99829.81
2023-04-18T10:48:22.453Z,99838.81
2023-04-18T10:51:18.322Z,99833.22
2023-04-18T10:54:02.455Z,99831.63
2023-04-18T10:56:55.415Z,99825.59
2023-04-18T10:59:59.818Z,99821.13
2023-04-18T11:02:56.366Z,99819.25
2023-04-18T11:05:39.932Z,99813.84
2023-04-18T11:08:23.848Z,99822.09
2023-04-18T11:11:18.453Z,99818.22
2023-04-18T11:13:58.256Z,99821.62
2023-04-18T11:16:54.896Z,99815.09
2023-04-18T11:19:36.336Z,99809.78
2023-04-18T11:22:29.291Z,99818.22
2023-04-18T11:25:18.558Z,99822.47
2023-04-18T11:28:13.934Z,99824.03
2023-04-18T11:30:52.743Z,99824.44
2023-04-18T11:33:48.642Z,99828.25
2023-04-18T11:36:35.273Z,99821.94
2023-04-18T11:43:03.538Z,99829.22
2023-04-18T11:45:31.422Z,99821.28
2023-04-18T11:48:01.026Z,99826.66
2023-04-18T11:50:29.744Z,99821.41
2023-04-18T11:52:58.408Z,99831.25
2023-04-18T11:55:27.373Z,99825.22
2023-04-18T11:57:57.755Z,99821.59
2023-04-18T12:00:32.865Z,99826.03
2023-04-18T12:03:05.953Z,99819.28
2023-04-18T12:05:39.890Z,99812.69
2023-04-18T12:08:13.487Z,99814.75
2023-04-18T12:10:48.393Z,99813.19
2023-04-18T12:13:20.442Z,99818.56
2023-04-18T12:15:49.136Z,99811.34
2023-04-18T12:18:22.114Z,99809.63
2023-04-18T12:20:54.720Z,99815.78
2023-04-18T12:23:37.576Z,99815.16
2023-04-18T12:26:08.659Z,99809.44
2023-04-18T12:28:36.880Z,99805.81
2023-04-18T12:31:12.493Z,99806.59
2023-04-18T12:33:48.645Z,99813.06
2023-04-18T12:36:23.581Z,99810.53
2023-04-18T12:38:54.725Z,99812.59
2023-04-18T12:41:27.154Z,99810.47
2023-04-18T12:43:58.767Z,99812.41
2023-04-18T12:46:34.127Z,99813.50
2023-04-18T12:49:02.341Z,99810.50
2023-04-18T12:51:30.124Z,99811.06
2023-04-18T12:54:02.211Z,99812.31
2023-04-18T12:56:36.466Z,99802.66
2023-04-18T12:59:05.382Z,99807.03
2023-04-18T13:01:44.840Z,99808.31
2023-04-18T13:04:14.093Z,99800.84
2023-04-18T13:06:46.565Z,99805.44
2023-04-18T13:09:18.029Z,99798.91
2023-04-18T13:11:55.426Z,99801.53
2023-04-18T13:14:24.890Z,99797.50
2023-04-18T13:16:56.697Z,99803.84
2023-04-18T13:19:29.842Z,99806.44
2023-04-18T13:22:01.727Z,99800.78
2023-04-18T13:24:31.941Z,99802.81
2023-04-18T13:27:02.501Z,99807.78
2023-04-18T13:29:38.706Z,99810.37
2023-04-18T13:32:11.759Z,99801.78
2023-04-18T13:34:42.777Z,99806.66
2023-04-18T13:37:12.739Z,99807.97
2023-04-18T13:39:45.381Z,99812.88
2023-04-18T13:42:15.973Z,99815.91
2023-04-18T13:44:44.799Z,99817.19
2023-04-18T13:47:13.462Z,99815.47
2023-04-18T13:49:41.474Z,99818.47
2023-04-18T13:52:10.926Z,99812.94
2023-04-18T13:57:47.499Z,99799.59
2023-04-18T14:00:25.321Z,99795.56
2023-04-18T14:02:55.617Z,99795.28
2023-04-18T14:05:31.311Z,99805.00
2023-04-18T14:08:03.945Z,99787.78
2023-04-18T14:10:32.285Z,99793.03
2023-04-18T14:13:09.417Z,99783.69
2023-04-18T14:15:48.694Z,99787.91
2023-04-18T14:18:21.874Z,99794.22
2023-04-18T14:20:54.591Z,99792.09
2023-04-18T14:23:26.743Z,99790.69
2023-04-18T14:26:00.707Z,99795.34
2023-04-18T14:28:35.007Z,99788.16
2023-04-18T14:31:12.204Z,99788.59
2023-04-18T14:33:40.686Z,99798.03
2023-04-18T14:36:17.530Z,99787.75
2023-04-18T14:38:53.475Z,99796.09
2023-04-18T14:41:34.203Z,99791.97
2023-04-18T14:44:07.511Z,99790.88
2023-04-18T14:46:43.508Z,99791.75
2023-04-18T14:49:12.728Z,99794.81
2023-04-18T14:51:46.524Z,99785.91
2023-04-18T14:56:52.738Z,99796.94
2023-04-18T14:59:38.559Z,99795.37
2023-04-18T15:02:07.772Z,99796.78
2023-04-18T15:04:37.601Z,99800.44
2023-04-18T15:07:10.173Z,99800.81
2023-04-18T15:09:40.635Z,99800.84
2023-04-18T15:14:53.420Z,99791.75
2023-04-18T15:17:23.065Z,99788.59
2023-04-18T15:19:57.492Z,99788.63
2023-04-18T15:22:33.448Z,99788.28
2023-04-18T15:25:01.774Z,99788.81
2023-04-18T15:27:32.728Z,99800.47
2023-04-18T15:30:06.606Z,99790.63
2023-04-18T15:32:37.164Z,99792.12
2023-04-18T15:38:33.910Z,99794.53
2023-04-18T15:44:58.571Z,99791.28
2023-04-18T15:47:30.114Z,99802.56
2023-04-18T15:50:06.631Z,99798.91
2023-04-18T15:52:38.077Z,99799.34
2023-04-18T15:55:14.183Z,99807.91
2023-04-18T15:57:50.670Z,99805.97
2023-04-18T16:00:28.915Z,99791.25
2023-04-18T16:03:04.609Z,99799.88
2023-04-18T16:08:16.159Z,99804.56
2023-04-18T16:10:44.743Z,99811.69
2023-04-18T16:13:16.828Z,99821.28
2023-04-18T16:15:48.535Z,99823.13
2023-04-18T16:18:16.648Z,99825.87
2023-04-18T16:23:37.075Z,99819.44
2023-04-18T16:26:15.454Z,99821.72
2023-04-18T16:28:46.458Z,99830.06
2023-04-18T16:31:17.660Z,99820.44
2023-04-18T16:34:01.148Z,99827.53
2023-04-18T16:39:19.548Z,99824.28
2023-04-18T16:41:49.596Z,99824.91
2023-04-18T16:44:21.095Z,99826.19
2023-04-18T16:47:03.598Z,99826.13
2023-04-18T16:49:45.682Z,99826.81
2023-04-18T16:52:20.219Z,99818.75
2023-04-18T16:54:52.828Z,99828.63
2023-04-18T16:57:27.676Z,99827.06
2023-04-18T16:59:58.521Z,99830.59
2023-04-18T17:02:26.489Z,99822.25
2023-04-18T17:05:01.762Z,99830.06
2023-04-18T17:07:40.474Z,99831.88
2023-04-18T17:10:10.165Z,99832.53
2023-04-18T17:18:00.669Z,99836.94
2023-04-18T17:20:28.810Z,99839.41
2023-04-18T17:25:42.853Z,99832.81
2023-04-18T17:30:52.834Z,99839.41
2023-04-18T17:33:24.958Z,99841.06
2023-04-18T17:35:58.490Z,99844.59
2023-04-18T17:38:37.475Z,99847.03
2023-04-18T17:41:14.004Z,99848.16
2023-04-18T17:43:46.099Z,99853.78
2023-04-18T17:46:17.082Z,99859.19
2023-04-18T17:51:30.476Z,99866.09
2023-04-18T17:54:11.506Z,99867.81
2023-04-18T17:56:47.463Z,99870.50
2023-04-18T17:59:21.041Z,99876.38
2023-04-18T18:01:56.925Z,99876.44
2023-04-18T18:04:28.618Z,99878.37
2023-04-18T18:15:14.699Z,99888.44
2023-04-18T18:17:49.878Z,99893.19
2023-04-18T18:20:26.847Z,99899.28
2023-04-18T18:22:57.532Z,99900.13
2023-04-18T18:25:31.744Z,99902.91
2023-04-18T18:28:02.409Z,99901.16
2023-04-18T18:30:38.651Z,99905.81
2023-04-18T18:33:10.206Z,99901.87
2023-04-18T18:35:59.827Z,99903.75
2023-04-18T18:41:23.602Z,99901.50
2023-04-18T18:43:59.583Z,99902.91
2023-04-18T18:46:35.512Z,99903.03
2023-04-18T18:49:08.229Z,99904.84
2023-04-18T18:51:47.987Z,99907.94
2023-04-18T18:54:28.353Z,99909.31
2023-04-18T18:57:04.531Z,99909.22
2023-04-18T18:59:32.376Z,99909.84
2023-04-18T19:02:11.871Z,99909.22
2023-04-18T19:04:50.848Z,99917.09
2023-04-18T19:07:27.480Z,99925.00
2023-04-18T19:10:03.670Z,99914.94
2023-04-18T19:12:35.149Z,99922.84
2023-04-18T19:20:18.681Z,99922.31
2023-04-18T19:22:49.768Z,99921.34
2023-04-18T19:25:24.179Z,99926.50
2023-04-18T19:27:57.527Z,99934.72
2023-04-18T19:30:35.845Z,99935.66
2023-04-18T19:33:07.035Z,99940.97
2023-04-18T19:35:37.958Z,99950.53
2023-04-18T19:38:13.530Z,99956.78
2023-04-18T19:40:51.687Z,99959.81
2023-04-18T19:43:34.501Z,99962.03
2023-04-18T19:46:04.653Z,99973.31
2023-04-18T19:48:33.222Z,99982.91
2023-04-18T19:51:04.064Z,99982.06
2023-04-18T19:53:38.266Z,99980.59
2023-04-18T19:56:07.015Z,99981.72
2023-04-18T19:58:48.977Z,99975.72
2023-04-18T20:01:25.139Z,99983.28
2023-04-18T20:04:01.033Z,99975.56
2023-04-18T20:06:44.478Z,99974.56
2023-04-18T20:09:17.000Z,99974.34
2023-04-18T20:11:49.328Z,99971.66
2023-04-18T20:14:18.957Z,99980.72
2023-04-18T20:16:51.525Z,99980.84
2023-04-18T20:19:25.768Z,99988.53
2023-04-18T20:24:39.554Z,99987.47
2023-04-18T20:27:07.491Z,99989.78
2023-04-18T20:29:36.547Z,99991.25
2023-04-18T20:32:11.570Z,99997.00
2023-04-18T20:34:51.647Z,99990.84
2023-04-18T20:37:24.695Z,99986.37
2023-04-18T20:39:58.915Z,99982.09
2023-04-18T20:42:34.803Z,99981.53
2023-04-18T20:45:06.141Z,99981.06
2023-04-18T20:47:35.705Z,99978.28
2023-04-18T20:50:10.180Z,99981.81
2023-04-18T20:52:42.892Z,99977.25
2023-04-18T20:57:53.539Z,99986.47
2023-04-18T21:00:23.053Z,99981.06
2023-04-18T21:02:52.842Z,99979.25
2023-04-18T21:05:23.882Z,99974.66
2023-04-18T21:07:54.942Z,99976.13
2023-04-18T21:10:23.995Z,99973.53
2023-04-18T21:12:52.683Z,99979.34
2023-04-18T21:15:24.715Z,99986.09
2023-04-18T21:17:57.169Z,99980.50
2023-04-18T21:20:27.128Z,99979.44
2023-04-18T21:22:57.681Z,99981.16
2023-04-18T21:25:27.501Z,99978.47
2023-04-18T21:27:55.036Z,99983.06
2023-04-18T21:30:22.964Z,99985.81
2023-04-18T21:33:04.600Z,99982.78
2023-04-18T21:35:38.989Z,99978.13
2023-04-18T21:38:06.914Z,99981.72
2023-04-18T21:40:34.345Z,99972.03
2023-04-18T21:43:02.157Z,99969.97
2023-04-18T21:45:36.892Z,99966.03
2023-04-18T21:48:07.700Z,99967.72
2023-04-18T21:50:36.303Z,99962.84
2023-04-18T21:53:03.997Z,99960.53
2023-04-18T21:55:31.303Z,99958.94
2023-04-18T21:58:04.594Z,99966.41
2023-04-18T22:00:36.645Z,99963.09
2023-04-18T22:03:07.306Z,99964.34
2023-04-18T22:05:34.996Z,99970.50
2023-04-18T22:08:03.066Z,99971.28
2023-04-18T22:10:31.668Z,99967.75
2023-04-18T22:13:05.486Z,99969.38
2023-04-18T22:15:34.442Z,99967.00
2023-04-18T22:18:04.800Z,99965.94
2023-04-18T22:20:33.767Z,99956.81
2023-04-18T22:23:07.086Z,99960.69
2023-04-18T22:25:34.836Z,99957.47
2023-04-18T22:28:08.237Z,99960.97
2023-04-18T22:30:36.210Z,99954.69
2023-04-18T22:33:04.805Z,99962.28
2023-04-18T22:35:32.512Z,99949.81
2023-04-18T22:38:00.535Z,99951.50
2023-04-18T22:40:27.885Z,99947.47
2023-04-18T22:42:56.108Z,99951.69
2023-04-18T22:45:24.390Z,99943.69
2023-04-18T22:47:52.551Z,99942.53
2023-04-18T22:50:21.511Z,99935.91
2023-04-18T22:52:49.202Z,99939.47
2023-04-18T22:55:16.894Z,99940.09
2023-04-18T22:57:45.339Z,99937.78
2023-04-18T23:00:13.833Z,99929.25
2023-04-18T23:02:42.678Z,99926.00
2023-04-18T23:05:16.537Z,99930.03
2023-04-18T23:07:44.255Z,99925.16
2023-04-18T23:10:11.902Z,99925.25
2023-04-18T23:12:39.479Z,99926.41
2023-04-18T23:15:07.618Z,99919.09
2023-04-18T23:17:35.034Z,99920.56
2023-04-18T23:20:07.647Z,99916.03
2023-04-18T23:22:35.292Z,99911.75
2023-04-18T23:25:06.717Z,99916.03
2023-04-18T23:27:34.491Z,99909.81
2023-04-18T23:30:02.632Z,99905.84
2023-04-18T23:32:29.869Z,99890.97
2023-04-18T23:34:57.720Z,99898.22
2023-04-18T23:37:25.826Z,99893.94
2023-04-18T23:39:53.701Z,99881.56
2023-04-18T23:42:21.367Z,99886.06
2023-04-18T23:44:50.391Z,99882.25
2023-04-18T23:47:19.102Z,99878.37
2023-04-18T23:49:47.144Z,99874.13
2023-04-18T23:52:15.296Z,99875.28
2023-04-18T23:54:42.528Z,99876.00
2023-04-18T23:57:10.378Z,99868.03
2023-04-18T23:59:38.118Z,99864.97
